sensor_id;sensor_type;location;lat;lon;timestamp;P1;durP1;ratioP1;P2;durP2;ratioP2
49029;SDS011;43337;52.070;4.508;2023-06-01T00:01:43;16.95;;;7.88;;
49029;SDS011;43337;52.070;4.508;2023-06-01T00:04:08;17.50;;;7.03;;
49029;SDS011;43337;52.070;4.508;2023-06-01T00:06:34;17.67;;;7.43;;
49029;SDS011;43337;52.070;4.508;2023-06-01T00:09:00;18.15;;;7.20;;
49029;SDS011;43337;52.070;4.508;2023-06-01T00:11:27;15.65;;;7.25;;
49029;SDS011;43337;52.070;4.508;2023-06-01T00:13:52;14.48;;;6.15;;
49029;SDS011;43337;52.070;4.508;2023-06-01T00:16:18;14.27;;;6.30;;
49029;SDS011;43337;52.070;4.508;2023-06-01T00:18:44;15.85;;;6.50;;
49029;SDS011;43337;52.070;4.508;2023-06-01T00:21:09;14.82;;;5.60;;
49029;SDS011;43337;52.070;4.508;2023-06-01T00:23:35;12.25;;;4.97;;
49029;SDS011;43337;52.070;4.508;2023-06-01T00:26:01;13.40;;;5.28;;
49029;SDS011;43337;52.070;4.508;2023-06-01T00:28:26;15.45;;;5.82;;
49029;SDS011;43337;52.070;4.508;2023-06-01T00:30:52;12.82;;;4.45;;
49029;SDS011;43337;52.070;4.508;2023-06-01T00:33:18;16.02;;;5.10;;
49029;SDS011;43337;52.070;4.508;2023-06-01T00:35:44;14.25;;;5.32;;
49029;SDS011;43337;52.070;4.508;2023-06-01T00:38:10;16.02;;;5.35;;
49029;SDS011;43337;52.070;4.508;2023-06-01T00:40:36;13.93;;;4.50;;
49029;SDS011;43337;52.070;4.508;2023-06-01T00:43:01;11.52;;;5.00;;
49029;SDS011;43337;52.070;4.508;2023-06-01T00:45:27;13.38;;;4.57;;
49029;SDS011;43337;52.070;4.508;2023-06-01T00:47:52;10.95;;;5.55;;
49029;SDS011;43337;52.070;4.508;2023-06-01T00:50:18;12.43;;;4.80;;
49029;SDS011;43337;52.070;4.508;2023-06-01T00:52:44;14.15;;;5.38;;
49029;SDS011;43337;52.070;4.508;2023-06-01T00:55:11;11.77;;;4.97;;
49029;SDS011;43337;52.070;4.508;2023-06-01T00:57:42;14.60;;;4.68;;
49029;SDS011;43337;52.070;4.508;2023-06-01T01:00:08;12.35;;;4.75;;
49029;SDS011;43337;52.070;4.508;2023-06-01T01:02:38;10.65;;;4.72;;
49029;SDS011;43337;52.070;4.508;2023-06-01T01:05:05;12.38;;;5.10;;
49029;SDS011;43337;52.070;4.508;2023-06-01T01:07:42;14.00;;;4.88;;
49029;SDS011;43337;52.070;4.508;2023-06-01T01:21:32;11.68;;;5.07;;
49029;SDS011;43337;52.070;4.508;2023-06-01T01:29:39;10.68;;;5.82;;
49029;SDS011;43337;52.070;4.508;2023-06-01T01:32:07;16.08;;;5.68;;
49029;SDS011;43337;52.070;4.508;2023-06-01T01:34:33;13.20;;;5.80;;
49029;SDS011;43337;52.070;4.508;2023-06-01T01:37:00;12.90;;;5.97;;
49029;SDS011;43337;52.070;4.508;2023-06-01T01:39:25;15.80;;;6.60;;
49029;SDS011;43337;52.070;4.508;2023-06-01T01:41:51;14.38;;;5.85;;
49029;SDS011;43337;52.070;4.508;2023-06-01T01:44:16;11.75;;;6.03;;
49029;SDS011;43337;52.070;4.508;2023-06-01T01:50:13;11.13;;;5.78;;
49029;SDS011;43337;52.070;4.508;2023-06-01T01:54:51;11.80;;;5.70;;
49029;SDS011;43337;52.070;4.508;2023-06-01T01:57:18;13.60;;;6.28;;
49029;SDS011;43337;52.070;4.508;2023-06-01T01:59:45;13.75;;;6.00;;
49029;SDS011;43337;52.070;4.508;2023-06-01T02:02:11;15.63;;;6.03;;
49029;SDS011;43337;52.070;4.508;2023-06-01T02:04:40;15.77;;;6.18;;
49029;SDS011;43337;52.070;4.508;2023-06-01T02:07:07;13.73;;;5.70;;
49029;SDS011;43337;52.070;4.508;2023-06-01T02:09:33;11.85;;;6.05;;
49029;SDS011;43337;52.070;4.508;2023-06-01T02:11:58;12.90;;;5.85;;
49029;SDS011;43337;52.070;4.508;2023-06-01T02:14:24;15.32;;;5.63;;
49029;SDS011;43337;52.070;4.508;2023-06-01T02:16:49;11.77;;;5.45;;
49029;SDS011;43337;52.070;4.508;2023-06-01T02:19:15;12.43;;;6.15;;
49029;SDS011;43337;52.070;4.508;2023-06-01T02:21:41;14.15;;;5.40;;
49029;SDS011;43337;52.070;4.508;2023-06-01T02:24:07;14.68;;;4.93;;
49029;SDS011;43337;52.070;4.508;2023-06-01T02:26:34;13.93;;;5.63;;
49029;SDS011;43337;52.070;4.508;2023-06-01T02:29:00;10.60;;;5.28;;
49029;SDS011;43337;52.070;4.508;2023-06-01T02:31:27;13.70;;;6.13;;
49029;SDS011;43337;52.070;4.508;2023-06-01T02:33:52;13.20;;;6.03;;
49029;SDS011;43337;52.070;4.508;2023-06-01T02:36:18;14.38;;;5.15;;
49029;SDS011;43337;52.070;4.508;2023-06-01T02:38:43;13.60;;;5.50;;
49029;SDS011;43337;52.070;4.508;2023-06-01T02:41:09;11.82;;;5.40;;
49029;SDS011;43337;52.070;4.508;2023-06-01T02:43:34;16.00;;;5.50;;
49029;SDS011;43337;52.070;4.508;2023-06-01T02:46:02;15.35;;;6.05;;
49029;SDS011;43337;52.070;4.508;2023-06-01T02:48:28;12.10;;;5.28;;
49029;SDS011;43337;52.070;4.508;2023-06-01T02:50:53;10.80;;;6.05;;
49029;SDS011;43337;52.070;4.508;2023-06-01T02:53:20;11.63;;;5.15;;
49029;SDS011;43337;52.070;4.508;2023-06-01T02:55:45;15.30;;;5.28;;
49029;SDS011;43337;52.070;4.508;2023-06-01T02:58:11;12.43;;;5.65;;
49029;SDS011;43337;52.070;4.508;2023-06-01T03:00:42;16.95;;;5.75;;
49029;SDS011;43337;52.070;4.508;2023-06-01T03:03:08;15.60;;;6.53;;
49029;SDS011;43337;52.070;4.508;2023-06-01T03:05:34;13.23;;;6.15;;
49029;SDS011;43337;52.070;4.508;2023-06-01T03:08:00;10.82;;;5.35;;
49029;SDS011;43337;52.070;4.508;2023-06-01T03:10:26;14.27;;;5.45;;
49029;SDS011;43337;52.070;4.508;2023-06-01T03:12:51;12.77;;;5.35;;
49029;SDS011;43337;52.070;4.508;2023-06-01T03:15:17;15.82;;;6.15;;
49029;SDS011;43337;52.070;4.508;2023-06-01T03:17:42;16.70;;;5.43;;
49029;SDS011;43337;52.070;4.508;2023-06-01T03:20:08;15.65;;;5.65;;
49029;SDS011;43337;52.070;4.508;2023-06-01T03:22:40;14.77;;;5.43;;
49029;SDS011;43337;52.070;4.508;2023-06-01T03:25:06;17.45;;;6.78;;
49029;SDS011;43337;52.070;4.508;2023-06-01T03:27:32;11.10;;;5.13;;
49029;SDS011;43337;52.070;4.508;2023-06-01T03:29:57;14.27;;;4.97;;
49029;SDS011;43337;52.070;4.508;2023-06-01T03:32:23;11.48;;;4.85;;
49029;SDS011;43337;52.070;4.508;2023-06-01T03:34:48;14.48;;;5.78;;
49029;SDS011;43337;52.070;4.508;2023-06-01T03:37:13;11.38;;;5.05;;
49029;SDS011;43337;52.070;4.508;2023-06-01T03:39:40;9.98;;;4.65;;
49029;SDS011;43337;52.070;4.508;2023-06-01T03:42:05;15.00;;;5.20;;
49029;SDS011;43337;52.070;4.508;2023-06-01T03:44:32;15.98;;;5.80;;
49029;SDS011;43337;52.070;4.508;2023-06-01T03:46:57;11.55;;;4.80;;
49029;SDS011;43337;52.070;4.508;2023-06-01T03:49:23;13.63;;;5.20;;
49029;SDS011;43337;52.070;4.508;2023-06-01T03:51:48;13.77;;;5.32;;
49029;SDS011;43337;52.070;4.508;2023-06-01T03:54:13;11.18;;;4.90;;
49029;SDS011;43337;52.070;4.508;2023-06-01T03:56:39;11.23;;;4.72;;
49029;SDS011;43337;52.070;4.508;2023-06-01T03:59:05;13.70;;;5.45;;
49029;SDS011;43337;52.070;4.508;2023-06-01T04:01:35;17.23;;;6.55;;
49029;SDS011;43337;52.070;4.508;2023-06-01T04:04:01;11.65;;;5.32;;
49029;SDS011;43337;52.070;4.508;2023-06-01T04:06:29;14.40;;;5.80;;
49029;SDS011;43337;52.070;4.508;2023-06-01T04:08:54;16.00;;;6.03;;
49029;SDS011;43337;52.070;4.508;2023-06-01T04:11:25;13.20;;;5.88;;
49029;SDS011;43337;52.070;4.508;2023-06-01T04:13:51;13.85;;;5.55;;
49029;SDS011;43337;52.070;4.508;2023-06-01T04:16:18;13.82;;;5.90;;
49029;SDS011;43337;52.070;4.508;2023-06-01T04:18:43;15.90;;;6.57;;
49029;SDS011;43337;52.070;4.508;2023-06-01T04:21:09;14.63;;;5.57;;
49029;SDS011;43337;52.070;4.508;2023-06-01T04:23:35;13.35;;;5.50;;
49029;SDS011;43337;52.070;4.508;2023-06-01T04:26:02;12.60;;;5.10;;
49029;SDS011;43337;52.070;4.508;2023-06-01T04:28:30;10.73;;;4.47;;
49029;SDS011;43337;52.070;4.508;2023-06-01T04:30:57;13.13;;;4.93;;
49029;SDS011;43337;52.070;4.508;2023-06-01T04:33:23;11.35;;;4.70;;
49029;SDS011;43337;52.070;4.508;2023-06-01T04:35:49;14.90;;;4.95;;
49029;SDS011;43337;52.070;4.508;2023-06-01T04:38:17;10.52;;;4.82;;
49029;SDS011;43337;52.070;4.508;2023-06-01T04:40:43;11.70;;;5.50;;
49029;SDS011;43337;52.070;4.508;2023-06-01T04:43:12;15.43;;;5.00;;
49029;SDS011;43337;52.070;4.508;2023-06-01T04:45:37;12.32;;;5.63;;
49029;SDS011;43337;52.070;4.508;2023-06-01T04:48:04;14.75;;;5.20;;
49029;SDS011;43337;52.070;4.508;2023-06-01T04:50:36;15.10;;;5.10;;
49029;SDS011;43337;52.070;4.508;2023-06-01T04:53:02;11.80;;;5.38;;
49029;SDS011;43337;52.070;4.508;2023-06-01T04:55:28;15.02;;;5.55;;
49029;SDS011;43337;52.070;4.508;2023-06-01T04:57:55;15.55;;;5.78;;
49029;SDS011;43337;52.070;4.508;2023-06-01T05:00:20;16.58;;;6.53;;
49029;SDS011;43337;52.070;4.508;2023-06-01T05:02:46;11.75;;;5.57;;
49029;SDS011;43337;52.070;4.508;2023-06-01T05:05:13;14.35;;;5.72;;
49029;SDS011;43337;52.070;4.508;2023-06-01T05:07:40;14.02;;;4.95;;
49029;SDS011;43337;52.070;4.508;2023-06-01T05:10:10;13.25;;;5.70;;
49029;SDS011;43337;52.070;4.508;2023-06-01T05:12:36;15.02;;;5.55;;
49029;SDS011;43337;52.070;4.508;2023-06-01T05:15:02;16.08;;;5.93;;
49029;SDS011;43337;52.070;4.508;2023-06-01T05:17:31;11.82;;;5.35;;
49029;SDS011;43337;52.070;4.508;2023-06-01T05:19:56;16.75;;;5.38;;
49029;SDS011;43337;52.070;4.508;2023-06-01T05:22:24;14.15;;;6.13;;
49029;SDS011;43337;52.070;4.508;2023-06-01T05:24:50;18.27;;;6.68;;
49029;SDS011;43337;52.070;4.508;2023-06-01T05:27:16;12.25;;;6.13;;
49029;SDS011;43337;52.070;4.508;2023-06-01T05:29:42;21.38;;;6.68;;
49029;SDS011;43337;52.070;4.508;2023-06-01T05:32:08;14.00;;;6.28;;
49029;SDS011;43337;52.070;4.508;2023-06-01T05:34:34;14.75;;;5.78;;
49029;SDS011;43337;52.070;4.508;2023-06-01T05:37:00;17.25;;;6.68;;
49029;SDS011;43337;52.070;4.508;2023-06-01T05:39:26;14.23;;;7.25;;
49029;SDS011;43337;52.070;4.508;2023-06-01T05:41:52;17.73;;;7.20;;
49029;SDS011;43337;52.070;4.508;2023-06-01T05:44:18;16.55;;;5.97;;
49029;SDS011;43337;52.070;4.508;2023-06-01T05:46:43;16.55;;;7.18;;
49029;SDS011;43337;52.070;4.508;2023-06-01T05:49:09;14.00;;;6.53;;
49029;SDS011;43337;52.070;4.508;2023-06-01T05:51:34;18.25;;;8.15;;
49029;SDS011;43337;52.070;4.508;2023-06-01T05:54:02;16.30;;;7.35;;
49029;SDS011;43337;52.070;4.508;2023-06-01T05:56:29;14.98;;;7.07;;
49029;SDS011;43337;52.070;4.508;2023-06-01T05:58:54;19.77;;;7.63;;
49029;SDS011;43337;52.070;4.508;2023-06-01T06:01:20;16.15;;;7.65;;
49029;SDS011;43337;52.070;4.508;2023-06-01T06:03:45;16.08;;;8.13;;
49029;SDS011;43337;52.070;4.508;2023-06-01T06:06:10;16.63;;;8.35;;
49029;SDS011;43337;52.070;4.508;2023-06-01T06:08:36;17.02;;;7.80;;
49029;SDS011;43337;52.070;4.508;2023-06-01T06:11:02;24.33;;;8.57;;
49029;SDS011;43337;52.070;4.508;2023-06-01T06:13:27;16.40;;;7.50;;
49029;SDS011;43337;52.070;4.508;2023-06-01T06:15:52;16.88;;;7.82;;
49029;SDS011;43337;52.070;4.508;2023-06-01T06:18:18;18.88;;;7.13;;
49029;SDS011;43337;52.070;4.508;2023-06-01T06:20:44;18.00;;;7.57;;
49029;SDS011;43337;52.070;4.508;2023-06-01T06:23:10;20.88;;;8.00;;
49029;SDS011;43337;52.070;4.508;2023-06-01T06:25:36;14.70;;;7.72;;
49029;SDS011;43337;52.070;4.508;2023-06-01T06:28:04;18.48;;;7.55;;
49029;SDS011;43337;52.070;4.508;2023-06-01T06:30:30;15.40;;;7.55;;
49029;SDS011;43337;52.070;4.508;2023-06-01T06:32:55;16.27;;;8.48;;
49029;SDS011;43337;52.070;4.508;2023-06-01T06:35:21;15.05;;;7.03;;
49029;SDS011;43337;52.070;4.508;2023-06-01T06:37:46;14.05;;;7.35;;
49029;SDS011;43337;52.070;4.508;2023-06-01T06:40:12;15.68;;;7.47;;
49029;SDS011;43337;52.070;4.508;2023-06-01T06:42:37;16.50;;;7.82;;
49029;SDS011;43337;52.070;4.508;2023-06-01T06:45:03;18.20;;;7.50;;
49029;SDS011;43337;52.070;4.508;2023-06-01T06:47:30;15.60;;;7.07;;
49029;SDS011;43337;52.070;4.508;2023-06-01T06:49:55;15.75;;;8.07;;
49029;SDS011;43337;52.070;4.508;2023-06-01T06:52:21;16.38;;;8.43;;
49029;SDS011;43337;52.070;4.508;2023-06-01T06:54:46;18.20;;;7.50;;
49029;SDS011;43337;52.070;4.508;2023-06-01T06:57:11;22.77;;;7.57;;
49029;SDS011;43337;52.070;4.508;2023-06-01T06:59:38;22.45;;;7.45;;
49029;SDS011;43337;52.070;4.508;2023-06-01T07:02:03;17.05;;;7.35;;
49029;SDS011;43337;52.070;4.508;2023-06-01T07:04:29;13.43;;;6.93;;
49029;SDS011;43337;52.070;4.508;2023-06-01T07:06:54;13.77;;;7.00;;
49029;SDS011;43337;52.070;4.508;2023-06-01T07:09:20;14.75;;;6.25;;
49029;SDS011;43337;52.070;4.508;2023-06-01T07:11:46;12.10;;;5.85;;
49029;SDS011;43337;52.070;4.508;2023-06-01T07:14:13;12.75;;;5.85;;
49029;SDS011;43337;52.070;4.508;2023-06-01T07:16:39;11.75;;;5.78;;
49029;SDS011;43337;52.070;4.508;2023-06-01T07:19:04;15.85;;;7.00;;
49029;SDS011;43337;52.070;4.508;2023-06-01T07:21:29;15.65;;;6.28;;
49029;SDS011;43337;52.070;4.508;2023-06-01T07:23:55;14.40;;;5.63;;
49029;SDS011;43337;52.070;4.508;2023-06-01T07:26:21;15.52;;;5.75;;
49029;SDS011;43337;52.070;4.508;2023-06-01T07:28:50;15.98;;;6.78;;
49029;SDS011;43337;52.070;4.508;2023-06-01T07:31:18;13.52;;;6.22;;
49029;SDS011;43337;52.070;4.508;2023-06-01T07:33:43;14.07;;;5.65;;
49029;SDS011;43337;52.070;4.508;2023-06-01T07:36:09;15.60;;;6.13;;
49029;SDS011;43337;52.070;4.508;2023-06-01T07:38:35;10.90;;;4.85;;
49029;SDS011;43337;52.070;4.508;2023-06-01T07:41:00;11.60;;;5.13;;
49029;SDS011;43337;52.070;4.508;2023-06-01T07:43:26;14.07;;;5.65;;
49029;SDS011;43337;52.070;4.508;2023-06-01T07:45:51;14.32;;;5.95;;
49029;SDS011;43337;52.070;4.508;2023-06-01T07:48:16;10.95;;;5.22;;
49029;SDS011;43337;52.070;4.508;2023-06-01T07:50:42;10.80;;;4.90;;
49029;SDS011;43337;52.070;4.508;2023-06-01T07:53:08;16.50;;;6.03;;
49029;SDS011;43337;52.070;4.508;2023-06-01T07:55:34;14.07;;;5.75;;
49029;SDS011;43337;52.070;4.508;2023-06-01T07:57:59;10.68;;;5.22;;
49029;SDS011;43337;52.070;4.508;2023-06-01T08:00:25;12.93;;;5.57;;
49029;SDS011;43337;52.070;4.508;2023-06-01T08:02:51;11.55;;;5.43;;
49029;SDS011;43337;52.070;4.508;2023-06-01T08:05:17;13.40;;;5.70;;
49029;SDS011;43337;52.070;4.508;2023-06-01T08:07:44;10.90;;;4.75;;
49029;SDS011;43337;52.070;4.508;2023-06-01T08:10:11;12.13;;;5.53;;
49029;SDS011;43337;52.070;4.508;2023-06-01T08:12:38;12.88;;;4.95;;
49029;SDS011;43337;52.070;4.508;2023-06-01T08:15:03;11.68;;;5.22;;
49029;SDS011;43337;52.070;4.508;2023-06-01T08:17:29;12.73;;;4.50;;
49029;SDS011;43337;52.070;4.508;2023-06-01T08:19:55;13.80;;;4.93;;
49029;SDS011;43337;52.070;4.508;2023-06-01T08:22:21;16.63;;;4.72;;
49029;SDS011;43337;52.070;4.508;2023-06-01T08:24:48;10.30;;;4.50;;
49029;SDS011;43337;52.070;4.508;2023-06-01T08:27:21;11.23;;;4.63;;
49029;SDS011;43337;52.070;4.508;2023-06-01T08:29:48;11.53;;;5.17;;
49029;SDS011;43337;52.070;4.508;2023-06-01T08:32:14;8.88;;;5.40;;
49029;SDS011;43337;52.070;4.508;2023-06-01T08:34:40;13.30;;;5.07;;
49029;SDS011;43337;52.070;4.508;2023-06-01T08:37:07;12.70;;;4.65;;
49029;SDS011;43337;52.070;4.508;2023-06-01T08:39:33;10.25;;;4.70;;
49029;SDS011;43337;52.070;4.508;2023-06-01T08:44:40;11.10;;;4.28;;
49029;SDS011;43337;52.070;4.508;2023-06-01T08:47:07;9.65;;;4.60;;
49029;SDS011;43337;52.070;4.508;2023-06-01T08:49:34;13.73;;;4.15;;
49029;SDS011;43337;52.070;4.508;2023-06-01T08:52:02;10.30;;;3.70;;
49029;SDS011;43337;52.070;4.508;2023-06-01T08:54:32;10.13;;;3.72;;
49029;SDS011;43337;52.070;4.508;2023-06-01T08:57:03;9.55;;;4.63;;
49029;SDS011;43337;52.070;4.508;2023-06-01T08:59:29;9.35;;;4.20;;
49029;SDS011;43337;52.070;4.508;2023-06-01T09:01:57;11.15;;;4.88;;
49029;SDS011;43337;52.070;4.508;2023-06-01T09:04:22;11.13;;;4.43;;
49029;SDS011;43337;52.070;4.508;2023-06-01T09:06:48;12.35;;;4.00;;
49029;SDS011;43337;52.070;4.508;2023-06-01T09:09:13;9.05;;;4.55;;
49029;SDS011;43337;52.070;4.508;2023-06-01T09:11:39;9.73;;;4.90;;
49029;SDS011;43337;52.070;4.508;2023-06-01T09:16:59;11.65;;;3.97;;
49029;SDS011;43337;52.070;4.508;2023-06-01T09:19:25;6.85;;;3.95;;
49029;SDS011;43337;52.070;4.508;2023-06-01T09:22:06;11.77;;;4.35;;
49029;SDS011;43337;52.070;4.508;2023-06-01T09:24:31;9.95;;;4.78;;
49029;SDS011;43337;52.070;4.508;2023-06-01T09:27:00;10.98;;;3.83;;
49029;SDS011;43337;52.070;4.508;2023-06-01T09:29:26;9.43;;;4.35;;
49029;SDS011;43337;52.070;4.508;2023-06-01T09:31:52;8.73;;;4.55;;
49029;SDS011;43337;52.070;4.508;2023-06-01T09:34:19;8.52;;;4.22;;
49029;SDS011;43337;52.070;4.508;2023-06-01T09:36:46;7.68;;;3.55;;
49029;SDS011;43337;52.070;4.508;2023-06-01T09:39:12;9.05;;;4.00;;
49029;SDS011;43337;52.070;4.508;2023-06-01T09:41:43;8.48;;;3.88;;
49029;SDS011;43337;52.070;4.508;2023-06-01T09:46:59;11.15;;;4.43;;
49029;SDS011;43337;52.070;4.508;2023-06-01T09:49:32;8.02;;;4.30;;
49029;SDS011;43337;52.070;4.508;2023-06-01T09:54:29;7.72;;;3.22;;
49029;SDS011;43337;52.070;4.508;2023-06-01T09:56:56;10.30;;;4.18;;
49029;SDS011;43337;52.070;4.508;2023-06-01T09:59:22;8.00;;;3.70;;
49029;SDS011;43337;52.070;4.508;2023-06-01T10:01:50;8.60;;;3.97;;
49029;SDS011;43337;52.070;4.508;2023-06-01T10:04:19;8.18;;;3.50;;
49029;SDS011;43337;52.070;4.508;2023-06-01T10:06:47;12.05;;;3.60;;
49029;SDS011;43337;52.070;4.508;2023-06-01T10:09:16;10.73;;;3.33;;
49029;SDS011;43337;52.070;4.508;2023-06-01T10:11:44;7.72;;;3.42;;
49029;SDS011;43337;52.070;4.508;2023-06-01T10:14:10;9.18;;;3.85;;
49029;SDS011;43337;52.070;4.508;2023-06-01T10:16:36;10.40;;;3.97;;
49029;SDS011;43337;52.070;4.508;2023-06-01T10:19:01;6.35;;;3.28;;
49029;SDS011;43337;52.070;4.508;2023-06-01T10:21:27;8.82;;;3.97;;
49029;SDS011;43337;52.070;4.508;2023-06-01T10:23:53;8.07;;;3.60;;
49029;SDS011;43337;52.070;4.508;2023-06-01T10:26:19;10.32;;;3.88;;
49029;SDS011;43337;52.070;4.508;2023-06-01T10:28:46;11.40;;;3.35;;
49029;SDS011;43337;52.070;4.508;2023-06-01T10:34:05;8.40;;;3.42;;
49029;SDS011;43337;52.070;4.508;2023-06-01T10:39:22;11.57;;;3.57;;
49029;SDS011;43337;52.070;4.508;2023-06-01T10:41:59;9.65;;;3.75;;
49029;SDS011;43337;52.070;4.508;2023-06-01T10:57:30;8.95;;;3.20;;
49029;SDS011;43337;52.070;4.508;2023-06-01T11:13:21;6.07;;;2.92;;
49029;SDS011;43337;52.070;4.508;2023-06-01T11:18:50;10.05;;;3.47;;
49029;SDS011;43337;52.070;4.508;2023-06-01T11:21:23;6.60;;;2.97;;
49029;SDS011;43337;52.070;4.508;2023-06-01T11:23:49;6.93;;;3.10;;
49029;SDS011;43337;52.070;4.508;2023-06-01T11:26:20;9.15;;;3.05;;
49029;SDS011;43337;52.070;4.508;2023-06-01T11:28:49;7.25;;;2.92;;
49029;SDS011;43337;52.070;4.508;2023-06-01T11:31:16;5.63;;;3.05;;
49029;SDS011;43337;52.070;4.508;2023-06-01T11:33:46;6.85;;;2.88;;
49029;SDS011;43337;52.070;4.508;2023-06-01T11:36:17;7.78;;;2.85;;
49029;SDS011;43337;52.070;4.508;2023-06-01T11:38:45;7.75;;;2.40;;
49029;SDS011;43337;52.070;4.508;2023-06-01T11:41:11;7.95;;;2.80;;
49029;SDS011;43337;52.070;4.508;2023-06-01T11:43:36;7.95;;;2.70;;
49029;SDS011;43337;52.070;4.508;2023-06-01T11:46:08;7.38;;;2.67;;
49029;SDS011;43337;52.070;4.508;2023-06-01T11:48:36;6.15;;;2.40;;
49029;SDS011;43337;52.070;4.508;2023-06-01T11:51:02;4.85;;;2.50;;
49029;SDS011;43337;52.070;4.508;2023-06-01T11:53:29;5.72;;;2.13;;
49029;SDS011;43337;52.070;4.508;2023-06-01T11:55:58;8.05;;;2.47;;
49029;SDS011;43337;52.070;4.508;2023-06-01T11:58:24;5.40;;;2.38;;
49029;SDS011;43337;52.070;4.508;2023-06-01T12:00:51;4.80;;;1.90;;
49029;SDS011;43337;52.070;4.508;2023-06-01T12:03:17;7.75;;;1.77;;
49029;SDS011;43337;52.070;4.508;2023-06-01T12:05:43;7.50;;;2.20;;
49029;SDS011;43337;52.070;4.508;2023-06-01T12:10:50;8.32;;;2.22;;
49029;SDS011;43337;52.070;4.508;2023-06-01T12:13:17;8.98;;;2.45;;
49029;SDS011;43337;52.070;4.508;2023-06-01T12:15:44;4.82;;;1.77;;
49029;SDS011;43337;52.070;4.508;2023-06-01T12:18:10;6.45;;;2.05;;
49029;SDS011;43337;52.070;4.508;2023-06-01T12:20:37;7.45;;;1.67;;
49029;SDS011;43337;52.070;4.508;2023-06-01T12:25:37;4.68;;;1.80;;
49029;SDS011;43337;52.070;4.508;2023-06-01T12:28:12;7.47;;;1.60;;
49029;SDS011;43337;52.070;4.508;2023-06-01T12:30:38;3.72;;;1.60;;
49029;SDS011;43337;52.070;4.508;2023-06-01T12:33:03;6.28;;;1.70;;
49029;SDS011;43337;52.070;4.508;2023-06-01T12:35:30;6.35;;;1.83;;
49029;SDS011;43337;52.070;4.508;2023-06-01T12:38:06;4.30;;;1.98;;
49029;SDS011;43337;52.070;4.508;2023-06-01T12:40:33;5.88;;;1.92;;
49029;SDS011;43337;52.070;4.508;2023-06-01T12:43:00;5.03;;;1.50;;
49029;SDS011;43337;52.070;4.508;2023-06-01T12:45:25;6.55;;;1.73;;
49029;SDS011;43337;52.070;4.508;2023-06-01T12:48:01;8.25;;;1.85;;
49029;SDS011;43337;52.070;4.508;2023-06-01T12:50:26;3.88;;;1.33;;
49029;SDS011;43337;52.070;4.508;2023-06-01T12:52:52;3.42;;;1.60;;
49029;SDS011;43337;52.070;4.508;2023-06-01T12:55:17;3.10;;;1.25;;
49029;SDS011;43337;52.070;4.508;2023-06-01T12:57:43;5.38;;;1.70;;
49029;SDS011;43337;52.070;4.508;2023-06-01T13:00:09;3.70;;;1.38;;
49029;SDS011;43337;52.070;4.508;2023-06-01T13:02:34;5.07;;;1.63;;
49029;SDS011;43337;52.070;4.508;2023-06-01T13:05:00;4.18;;;1.80;;
49029;SDS011;43337;52.070;4.508;2023-06-01T13:07:26;4.78;;;2.25;;
49029;SDS011;43337;52.070;4.508;2023-06-01T13:09:51;6.93;;;1.90;;
49029;SDS011;43337;52.070;4.508;2023-06-01T13:12:17;6.38;;;1.90;;
49029;SDS011;43337;52.070;4.508;2023-06-01T13:14:42;3.08;;;1.67;;
49029;SDS011;43337;52.070;4.508;2023-06-01T13:17:08;6.55;;;2.35;;
49029;SDS011;43337;52.070;4.508;2023-06-01T13:19:33;3.63;;;1.58;;
49029;SDS011;43337;52.070;4.508;2023-06-01T13:21:59;3.65;;;1.67;;
49029;SDS011;43337;52.070;4.508;2023-06-01T13:24:24;6.20;;;1.85;;
49029;SDS011;43337;52.070;4.508;2023-06-01T13:26:50;3.92;;;1.85;;
49029;SDS011;43337;52.070;4.508;2023-06-01T13:29:15;3.58;;;1.60;;
49029;SDS011;43337;52.070;4.508;2023-06-01T13:31:41;5.28;;;2.03;;
49029;SDS011;43337;52.070;4.508;2023-06-01T13:34:06;5.55;;;1.80;;
49029;SDS011;43337;52.070;4.508;2023-06-01T13:36:32;7.90;;;2.53;;
49029;SDS011;43337;52.070;4.508;2023-06-01T13:38:58;4.90;;;2.33;;
49029;SDS011;43337;52.070;4.508;2023-06-01T13:41:23;4.22;;;2.40;;
49029;SDS011;43337;52.070;4.508;2023-06-01T13:43:49;2.78;;;1.83;;
49029;SDS011;43337;52.070;4.508;2023-06-01T13:46:15;5.13;;;2.28;;
49029;SDS011;43337;52.070;4.508;2023-06-01T13:48:40;3.88;;;1.77;;
49029;SDS011;43337;52.070;4.508;2023-06-01T13:51:06;3.03;;;1.73;;
49029;SDS011;43337;52.070;4.508;2023-06-01T13:53:32;4.50;;;1.52;;
49029;SDS011;43337;52.070;4.508;2023-06-01T13:55:58;3.05;;;1.73;;
49029;SDS011;43337;52.070;4.508;2023-06-01T13:58:24;5.93;;;2.38;;
49029;SDS011;43337;52.070;4.508;2023-06-01T14:00:49;6.07;;;2.63;;
49029;SDS011;43337;52.070;4.508;2023-06-01T14:03:15;6.40;;;2.10;;
49029;SDS011;43337;52.070;4.508;2023-06-01T14:05:40;4.40;;;1.90;;
49029;SDS011;43337;52.070;4.508;2023-06-01T14:08:05;4.63;;;1.70;;
49029;SDS011;43337;52.070;4.508;2023-06-01T14:10:32;6.72;;;2.25;;
49029;SDS011;43337;52.070;4.508;2023-06-01T14:12:59;8.00;;;2.47;;
49029;SDS011;43337;52.070;4.508;2023-06-01T14:15:25;7.90;;;2.30;;
49029;SDS011;43337;52.070;4.508;2023-06-01T14:17:50;6.65;;;2.67;;
49029;SDS011;43337;52.070;4.508;2023-06-01T14:20:16;5.63;;;2.05;;
49029;SDS011;43337;52.070;4.508;2023-06-01T14:22:42;5.68;;;2.20;;
49029;SDS011;43337;52.070;4.508;2023-06-01T14:25:07;5.97;;;2.08;;
49029;SDS011;43337;52.070;4.508;2023-06-01T14:27:33;8.70;;;3.17;;
49029;SDS011;43337;52.070;4.508;2023-06-01T14:29:59;5.15;;;2.78;;
49029;SDS011;43337;52.070;4.508;2023-06-01T14:32:27;6.90;;;3.33;;
49029;SDS011;43337;52.070;4.508;2023-06-01T14:34:53;10.73;;;3.92;;
49029;SDS011;43337;52.070;4.508;2023-06-01T14:37:18;5.65;;;2.95;;
49029;SDS011;43337;52.070;4.508;2023-06-01T14:39:43;6.20;;;2.97;;
49029;SDS011;43337;52.070;4.508;2023-06-01T14:42:10;5.22;;;2.58;;
49029;SDS011;43337;52.070;4.508;2023-06-01T14:44:36;5.10;;;2.00;;
49029;SDS011;43337;52.070;4.508;2023-06-01T14:47:01;6.05;;;2.20;;
49029;SDS011;43337;52.070;4.508;2023-06-01T14:49:27;5.15;;;2.28;;
49029;SDS011;43337;52.070;4.508;2023-06-01T14:51:52;4.78;;;1.42;;
49029;SDS011;43337;52.070;4.508;2023-06-01T14:54:17;5.35;;;1.60;;
49029;SDS011;43337;52.070;4.508;2023-06-01T14:56:43;5.10;;;2.15;;
49029;SDS011;43337;52.070;4.508;2023-06-01T14:59:08;6.47;;;2.47;;
49029;SDS011;43337;52.070;4.508;2023-06-01T15:01:33;5.15;;;1.83;;
49029;SDS011;43337;52.070;4.508;2023-06-01T15:03:59;4.93;;;2.10;;
49029;SDS011;43337;52.070;4.508;2023-06-01T15:06:24;7.72;;;2.00;;
49029;SDS011;43337;52.070;4.508;2023-06-01T15:08:50;4.97;;;2.03;;
49029;SDS011;43337;52.070;4.508;2023-06-01T15:11:15;6.32;;;2.45;;
49029;SDS011;43337;52.070;4.508;2023-06-01T15:13:41;5.18;;;1.77;;
49029;SDS011;43337;52.070;4.508;2023-06-01T15:16:07;3.25;;;1.83;;
49029;SDS011;43337;52.070;4.508;2023-06-01T15:18:33;5.70;;;2.15;;
49029;SDS011;43337;52.070;4.508;2023-06-01T15:20:58;4.22;;;1.85;;
49029;SDS011;43337;52.070;4.508;2023-06-01T15:23:25;4.70;;;1.63;;
49029;SDS011;43337;52.070;4.508;2023-06-01T15:25:52;6.82;;;1.92;;
49029;SDS011;43337;52.070;4.508;2023-06-01T15:28:17;8.13;;;1.70;;
49029;SDS011;43337;52.070;4.508;2023-06-01T15:30:42;4.82;;;1.90;;
49029;SDS011;43337;52.070;4.508;2023-06-01T15:33:08;7.22;;;1.70;;
49029;SDS011;43337;52.070;4.508;2023-06-01T15:35:33;5.82;;;1.60;;
49029;SDS011;43337;52.070;4.508;2023-06-01T15:37:58;4.22;;;1.70;;
49029;SDS011;43337;52.070;4.508;2023-06-01T15:40:24;7.20;;;1.90;;
49029;SDS011;43337;52.070;4.508;2023-06-01T15:42:49;6.00;;;1.90;;
49029;SDS011;43337;52.070;4.508;2023-06-01T15:45:14;4.55;;;1.50;;
49029;SDS011;43337;52.070;4.508;2023-06-01T15:47:40;4.45;;;1.75;;
49029;SDS011;43337;52.070;4.508;2023-06-01T15:50:05;6.35;;;1.45;;